createdAt,value
2018-05-06T00:01:14.083Z,12.2
2018-05-06T00:01:59.521Z,12.17
2018-05-06T00:02:59.463Z,12.16
2018-05-06T00:03:59.487Z,12.2
2018-05-06T00:04:59.511Z,12.2
2018-05-06T00:05:59.529Z,12.2
2018-05-06T00:06:59.549Z,12.16
2018-05-06T00:08:14.232Z,12.13
2018-05-06T00:08:59.597Z,12.16
2018-05-06T00:09:59.353Z,12.1
2018-05-06T00:10:59.640Z,12.2
2018-05-06T00:11:59.656Z,12.12
2018-05-06T00:12:59.673Z,12.19
2018-05-06T00:13:59.696Z,12.07
2018-05-06T00:15:14.443Z,12.07
2018-05-06T00:15:59.484Z,12.01
2018-05-06T00:16:59.766Z,12.02
2018-05-06T00:17:59.785Z,12.01
2018-05-06T00:18:59.802Z,12.01
2018-05-06T00:20:59.846Z,11.95
2018-05-06T00:21:59.866Z,11.96
2018-05-06T00:22:59.629Z,11.95
2018-05-06T00:23:59.652Z,12.01
2018-05-06T00:25:59.950Z,12.01
2018-05-06T00:26:59.969Z,11.96
2018-05-06T00:27:59.993Z,11.96
2018-05-06T00:29:00.012Z,11.94
2018-05-06T00:30:00.034Z,11.8
2018-05-06T00:31:00.054Z,11.82
2018-05-06T00:31:59.819Z,11.76
2018-05-06T00:33:00.100Z,11.76
2018-05-06T00:34:00.116Z,11.8
2018-05-06T00:35:00.146Z,11.78
2018-05-06T00:36:00.158Z,11.75
2018-05-06T00:37:59.683Z,11.69
2018-05-06T00:38:59.961Z,11.72
2018-05-06T00:40:14.902Z,11.65
2018-05-06T00:41:00.270Z,11.79
2018-05-06T00:42:00.025Z,11.7
2018-05-06T00:43:00.313Z,11.75
2018-05-06T00:44:00.323Z,11.69
2018-05-06T00:45:00.348Z,11.52
2018-05-06T00:46:00.371Z,11.54
2018-05-06T00:47:00.131Z,11.58
2018-05-06T00:48:00.411Z,11.52
2018-05-06T00:49:15.090Z,11.52
2018-05-06T00:50:00.450Z,11.47
2018-05-06T00:51:00.485Z,11.46
2018-05-06T00:52:00.491Z,11.52
2018-05-06T00:53:00.512Z,11.43
2018-05-06T00:54:00.539Z,11.47
2018-05-06T00:55:00.558Z,11.49
2018-05-06T00:56:15.237Z,11.37
2018-05-06T00:57:00.600Z,11.46
2018-05-06T00:58:00.616Z,11.29
2018-05-06T00:59:00.379Z,11.37
2018-05-06T01:00:00.658Z,11.25
2018-05-06T01:02:00.708Z,11.24
2018-05-06T01:03:00.721Z,11.27
2018-05-06T01:04:00.744Z,11.21
2018-05-06T01:05:00.772Z,11.28
2018-05-06T01:06:00.814Z,11.25
2018-05-06T01:07:00.548Z,11.24
2018-05-06T01:08:00.828Z,11.21
2018-05-06T01:09:00.848Z,11.18
2018-05-06T01:10:00.867Z,11.17
2018-05-06T01:11:00.897Z,11.18
2018-05-06T01:12:15.572Z,11.09
2018-05-06T01:13:00.931Z,11.18
2018-05-06T01:14:00.695Z,11.15
2018-05-06T01:16:00.733Z,11.14
2018-05-06T01:17:01.121Z,11.17
2018-05-06T01:18:01.037Z,11.11
2018-05-06T01:19:15.716Z,11.14
2018-05-06T01:20:15.738Z,11.06
2018-05-06T01:21:00.836Z,11.14
2018-05-06T01:22:01.123Z,11.06
2018-05-06T01:23:15.538Z,11.07
2018-05-06T01:24:01.162Z,10.99
2018-05-06T01:25:01.176Z,11.03
2018-05-06T01:26:01.200Z,11
2018-05-06T01:27:01.217Z,11.03
2018-05-06T01:28:15.900Z,10.89
2018-05-06T01:29:01.261Z,10.92
2018-05-06T01:30:01.284Z,10.96
2018-05-06T01:31:01.048Z,11.02
2018-05-06T01:32:01.320Z,10.89
2018-05-06T01:33:01.344Z,10.85
2018-05-06T01:34:01.363Z,10.89
2018-05-06T01:35:16.045Z,10.89
2018-05-06T01:36:01.405Z,10.88
2018-05-06T01:37:16.084Z,10.91
2018-05-06T01:38:01.188Z,10.96
2018-05-06T01:40:01.489Z,10.91
2018-05-06T01:41:01.248Z,10.85
2018-05-06T01:42:01.013Z,10.91
2018-05-06T01:43:15.951Z,10.71
2018-05-06T01:44:01.585Z,10.88
2018-05-06T01:45:01.639Z,10.79
2018-05-06T01:46:01.355Z,10.81
2018-05-06T01:47:01.631Z,10.74
2018-05-06T01:48:01.658Z,10.71
2018-05-06T01:49:01.674Z,10.79
2018-05-06T01:50:01.443Z,10.7
2018-05-06T01:51:16.375Z,10.73
2018-05-06T01:52:16.393Z,10.68
2018-05-06T01:54:01.776Z,10.73
2018-05-06T01:55:01.799Z,10.7
2018-05-06T01:56:01.821Z,10.81
2018-05-06T01:57:01.334Z,10.71
2018-05-06T01:58:01.908Z,10.61
2018-05-06T01:59:01.888Z,10.71
2018-05-06T02:01:01.922Z,10.6
2018-05-06T02:02:01.684Z,10.71
2018-05-06T02:03:01.960Z,10.66
2018-05-06T02:04:01.722Z,10.68
2018-05-06T02:05:02.056Z,10.7
2018-05-06T02:06:16.680Z,10.74
2018-05-06T02:07:16.708Z,10.67
2018-05-06T02:08:02.062Z,10.64
2018-05-06T02:09:02.089Z,10.67
2018-05-06T02:10:02.104Z,10.67
2018-05-06T02:11:02.122Z,10.68
2018-05-06T02:12:02.188Z,10.7
2018-05-06T02:13:02.161Z,10.61
2018-05-06T02:14:02.187Z,10.63
2018-05-06T02:15:16.604Z,10.63
2018-05-06T02:16:02.229Z,10.64
2018-05-06T02:17:02.242Z,10.61
2018-05-06T02:18:02.006Z,10.73
2018-05-06T02:19:02.286Z,10.79
2018-05-06T02:20:02.308Z,10.76
2018-05-06T02:21:02.072Z,10.78
2018-05-06T02:22:02.347Z,10.79
2018-05-06T02:23:02.368Z,10.71
2018-05-06T02:24:02.390Z,10.78
2018-05-06T02:25:02.413Z,10.74
2018-05-06T02:26:02.431Z,10.78
2018-05-06T02:28:02.470Z,10.68
2018-05-06T02:30:02.509Z,10.68
2018-05-06T02:32:02.550Z,10.68
2018-05-06T02:33:02.572Z,10.74
2018-05-06T02:34:02.592Z,10.68
2018-05-06T02:35:02.666Z,10.67
2018-05-06T02:36:02.630Z,10.66
2018-05-06T02:37:02.658Z,10.67
2018-05-06T02:38:02.675Z,10.68
2018-05-06T02:39:02.436Z,10.7
2018-05-06T02:40:02.715Z,10.71
2018-05-06T02:41:02.832Z,10.63
2018-05-06T02:42:02.510Z,10.64
2018-05-06T02:43:02.513Z,10.6
2018-05-06T02:44:02.795Z,10.61
2018-05-06T02:45:02.817Z,10.61
2018-05-06T02:46:02.839Z,10.64
2018-05-06T02:47:17.518Z,10.66
2018-05-06T02:48:02.875Z,10.53
2018-05-06T02:49:02.897Z,10.52
2018-05-06T02:50:02.913Z,10.47
2018-05-06T02:51:02.675Z,10.42
2018-05-06T02:52:02.953Z,10.44
2018-05-06T02:53:02.986Z,10.51
2018-05-06T02:54:02.993Z,10.47
2018-05-06T02:55:03.013Z,10.45
2018-05-06T02:56:02.777Z,10.51
2018-05-06T02:57:17.712Z,10.42
2018-05-06T02:58:03.075Z,10.38
2018-05-06T02:59:03.101Z,10.33
2018-05-06T03:00:03.198Z,10.45
2018-05-06T03:02:03.159Z,10.42
2018-05-06T03:03:17.839Z,10.34
2018-05-06T03:04:03.209Z,10.38
2018-05-06T03:05:03.216Z,10.4
2018-05-06T03:06:02.975Z,10.34
2018-05-06T03:07:02.998Z,10.25
2018-05-06T03:08:03.016Z,10.32
2018-05-06T03:09:03.300Z,10.22
2018-05-06T03:10:03.091Z,10.26
2018-05-06T03:11:03.078Z,10.18
2018-05-06T03:12:03.104Z,10.22
2018-05-06T03:13:03.119Z,10.2
2018-05-06T03:14:03.141Z,10.18
2018-05-06T03:15:03.418Z,10.18
2018-05-06T03:16:03.450Z,10.18
2018-05-06T03:17:02.940Z,10.14
2018-05-06T03:18:18.135Z,10.07
2018-05-06T03:19:03.497Z,10.05
2018-05-06T03:20:03.527Z,9.96
2018-05-06T03:21:03.282Z,10.04
2018-05-06T03:22:03.299Z,10.08
2018-05-06T03:23:03.584Z,10.05
2018-05-06T03:24:03.603Z,10.01
2018-05-06T03:25:03.646Z,10.01
2018-05-06T03:26:03.638Z,10.05
2018-05-06T03:27:18.316Z,10.11
2018-05-06T03:28:03.678Z,9.94
2018-05-06T03:29:03.701Z,9.94
2018-05-06T03:30:03.476Z,9.89
2018-05-06T03:31:03.489Z,9.96
2018-05-06T03:32:03.761Z,9.97
2018-05-06T03:33:03.518Z,9.99
2018-05-06T03:34:03.539Z,9.94
2018-05-06T03:35:03.560Z,9.93
2018-05-06T03:36:03.844Z,9.99
2018-05-06T03:37:03.865Z,9.93
2018-05-06T03:38:03.898Z,9.96
2018-05-06T03:39:03.976Z,9.91
2018-05-06T03:40:03.920Z,9.9
2018-05-06T03:41:03.682Z,9.97
2018-05-06T03:42:03.958Z,9.91
2018-05-06T03:43:03.978Z,9.93
2018-05-06T03:44:04.002Z,9.9
2018-05-06T03:45:04.022Z,9.94
2018-05-06T03:47:04.062Z,9.83
2018-05-06T03:48:03.561Z,9.78
2018-05-06T03:49:04.101Z,9.87
2018-05-06T03:51:03.927Z,9.78
2018-05-06T03:53:04.184Z,9.79
2018-05-06T03:54:04.199Z,9.72
2018-05-06T03:55:04.227Z,9.81
2018-05-06T03:56:03.978Z,9.75
2018-05-06T03:57:04.259Z,9.78
2018-05-06T03:58:04.020Z,9.76
2018-05-06T03:59:04.041Z,9.84
2018-05-06T04:01:04.338Z,9.83
2018-05-06T04:02:04.100Z,9.83
2018-05-06T04:03:04.119Z,9.79
2018-05-06T04:04:04.140Z,9.81
2018-05-06T04:05:03.902Z,9.91
2018-05-06T04:06:18.841Z,9.87
2018-05-06T04:08:04.220Z,9.79
2018-05-06T04:09:04.244Z,9.78
2018-05-06T04:11:04.551Z,9.96
2018-05-06T04:12:04.297Z,9.96
2018-05-06T04:13:04.585Z,10.15
2018-05-06T04:14:19.258Z,10.15
2018-05-06T04:15:19.278Z,10.14
2018-05-06T04:16:19.040Z,10.23
2018-05-06T04:17:04.664Z,10.18
2018-05-06T04:18:04.419Z,10.09
2018-05-06T04:19:04.709Z,10.17
2018-05-06T04:21:04.482Z,10.12
2018-05-06T04:22:19.160Z,10.12
2018-05-06T04:23:04.880Z,10.26
2018-05-06T04:25:04.563Z,10.17
2018-05-06T04:26:04.862Z,10.29
2018-05-06T04:27:04.608Z,10.25
2018-05-06T04:28:19.547Z,10.23
2018-05-06T04:29:04.903Z,10.27
2018-05-06T04:30:04.936Z,10.23
2018-05-06T04:31:04.689Z,10.23
2018-05-06T04:32:19.364Z,10.3
2018-05-06T04:33:04.982Z,10.38
2018-05-06T04:34:05.004Z,10.32
2018-05-06T04:35:05.128Z,10.33
2018-05-06T04:36:05.049Z,10.4
2018-05-06T04:37:04.803Z,10.33
2018-05-06T04:38:19.752Z,10.47
2018-05-06T04:39:04.588Z,10.44
2018-05-06T04:40:05.135Z,10.53
2018-05-06T04:41:04.886Z,10.52
2018-05-06T04:42:05.171Z,10.53
2018-05-06T04:43:05.187Z,10.61
2018-05-06T04:44:05.206Z,10.67
2018-05-06T04:45:04.972Z,10.67
2018-05-06T04:46:04.986Z,10.7
2018-05-06T04:47:19.927Z,10.76
2018-05-06T04:48:05.035Z,10.7
2018-05-06T04:49:05.308Z,10.88
2018-05-06T04:50:05.335Z,11.52
2018-05-06T04:51:05.098Z,12.49
2018-05-06T04:53:20.060Z,14.54
2018-05-06T04:54:05.416Z,15.19
2018-05-06T04:55:05.184Z,16.01
2018-05-06T04:56:05.463Z,16.63
2018-05-06T04:57:05.489Z,16.96
2018-05-06T04:58:05.245Z,17.21
2018-05-06T04:59:05.541Z,18.05
2018-05-06T05:00:05.293Z,18.62
2018-05-06T05:01:05.320Z,19.04
2018-05-06T05:02:05.603Z,19.29
2018-05-06T05:03:05.626Z,19.37
2018-05-06T05:04:05.667Z,19.51
2018-05-06T05:05:05.419Z,19.78
2018-05-06T05:06:05.453Z,19.78
2018-05-06T05:07:05.469Z,19.76
2018-05-06T05:08:05.497Z,20.57
2018-05-06T05:09:05.795Z,21.12
2018-05-06T05:10:05.547Z,21.47
2018-05-06T05:12:05.862Z,21.75
2018-05-06T05:13:05.630Z,22.1
2018-05-06T05:14:05.918Z,22.58
2018-05-06T05:15:05.693Z,22.52
2018-05-06T05:16:20.636Z,22.97
2018-05-06T05:17:06.011Z,23.25
2018-05-06T05:18:05.771Z,23.38
2018-05-06T05:19:20.463Z,23.95
2018-05-06T05:20:06.096Z,24.27
2018-05-06T05:21:05.603Z,24.25
2018-05-06T05:22:05.903Z,24.45
2018-05-06T05:23:06.180Z,24.61
2018-05-06T05:25:20.898Z,25.28
2018-05-06T05:26:06.284Z,24.84
2018-05-06T05:28:06.335Z,24.98
2018-05-06T05:29:06.359Z,24.95
2018-05-06T05:30:06.133Z,25.05
2018-05-06T05:31:06.430Z,25.3
2018-05-06T05:32:06.190Z,25.25
2018-05-06T05:33:05.967Z,25.25
2018-05-06T05:34:06.265Z,24.88
2018-05-06T05:35:06.292Z,25.15
2018-05-06T05:36:06.070Z,25.69
2018-05-06T05:37:06.612Z,25.35
2018-05-06T05:38:06.648Z,25.2
2018-05-06T05:39:06.674Z,25.73
2018-05-06T05:40:06.715Z,25.33
2018-05-06T05:41:21.408Z,25.13
2018-05-06T05:42:06.775Z,24.88
2018-05-06T05:43:06.553Z,24.77
2018-05-06T05:44:06.841Z,24.78
2018-05-06T05:45:06.872Z,25.13
2018-05-06T05:46:06.909Z,25.15
2018-05-06T05:47:06.679Z,25.33
2018-05-06T05:48:06.712Z,25.65
2018-05-06T05:49:07.007Z,25.9
2018-05-06T05:50:06.774Z,25.91
2018-05-06T05:51:21.478Z,26.02
2018-05-06T05:52:07.171Z,26.02
2018-05-06T05:53:06.620Z,26.33
2018-05-06T05:54:06.653Z,26.52
2018-05-06T05:55:06.686Z,26.5
2018-05-06T05:56:06.977Z,26.47
2018-05-06T05:57:21.933Z,26.35
2018-05-06T05:58:07.303Z,25.98
2018-05-06T05:59:07.340Z,26.21
2018-05-06T06:00:07.389Z,26.48
2018-05-06T06:01:07.155Z,26.47
2018-05-06T06:03:07.473Z,26.8
2018-05-06T06:04:07.513Z,26.92
2018-05-06T06:05:07.291Z,27.32
2018-05-06T06:06:22.239Z,27.03
2018-05-06T06:07:07.612Z,27.29
2018-05-06T06:08:07.644Z,27.27
2018-05-06T06:09:07.683Z,27.18
2018-05-06T06:10:07.465Z,27.18
2018-05-06T06:11:07.491Z,27.34
2018-05-06T06:12:07.782Z,27.67
2018-05-06T06:13:22.482Z,26.94
2018-05-06T06:14:07.855Z,26.43
2018-05-06T06:16:07.931Z,26.3
2018-05-06T06:17:07.702Z,26.44
2018-05-06T06:18:07.476Z,26.58
2018-05-06T06:19:22.695Z,26.47
2018-05-06T06:20:07.803Z,26.45
2018-05-06T06:21:08.108Z,26.44
2018-05-06T06:22:08.133Z,26.89
2018-05-06T06:23:08.168Z,27.04
2018-05-06T06:24:07.951Z,27.28
2018-05-06T06:26:08.286Z,26.99
2018-05-06T06:27:08.310Z,27.18
2018-05-06T06:28:23.011Z,27.44
2018-05-06T06:29:08.386Z,27.46
2018-05-06T06:30:08.423Z,27.75
2018-05-06T06:31:08.452Z,28.24
2018-05-06T06:32:08.233Z,27.92
2018-05-06T06:33:08.266Z,28.09
2018-05-06T06:34:08.557Z,28.27
2018-05-06T06:35:08.599Z,27.59
2018-05-06T06:36:08.374Z,27.06
2018-05-06T06:37:08.678Z,27.14
2018-05-06T06:38:08.707Z,27.22
2018-05-06T06:39:08.742Z,27.32
2018-05-06T06:40:08.775Z,27.39
2018-05-06T06:41:08.549Z,27.43
2018-05-06T06:42:08.588Z,27.43
2018-05-06T06:44:08.759Z,26.94
2018-05-06T06:45:08.699Z,27
2018-05-06T06:46:08.988Z,27.41
2018-05-06T06:47:08.508Z,27.12
2018-05-06T06:48:09.262Z,26.94
2018-05-06T06:49:09.098Z,27
2018-05-06T06:50:08.874Z,26.89
2018-05-06T06:51:09.168Z,26.69
2018-05-06T06:52:23.868Z,27.27
2018-05-06T06:53:09.246Z,27.12
2018-05-06T06:54:09.275Z,27.21
2018-05-06T06:55:09.324Z,27.59
2018-05-06T06:56:09.090Z,27.55
2018-05-06T06:57:09.389Z,27.66
2018-05-06T06:58:09.433Z,27.82
2018-05-06T06:59:09.198Z,27.41
2018-05-06T07:00:24.160Z,27.4
2018-05-06T07:01:09.540Z,27.75
2018-05-06T07:02:09.566Z,28.15
2018-05-06T07:03:09.600Z,27.84
2018-05-06T07:04:09.640Z,27.81
2018-05-06T07:05:09.672Z,28
2018-05-06T07:06:09.712Z,27.9
2018-05-06T07:07:09.747Z,27.85
2018-05-06T07:08:09.265Z,27.6
2018-05-06T07:09:09.818Z,27.43
2018-05-06T07:10:09.908Z,27.54
2018-05-06T07:11:09.936Z,27.18
2018-05-06T07:12:09.670Z,26.94
2018-05-06T07:13:09.706Z,27.44
2018-05-06T07:14:09.740Z,27.29
2018-05-06T07:17:10.114Z,26.76
2018-05-06T07:18:09.881Z,26.8
2018-05-06T07:19:10.216Z,26.85
2018-05-06T07:21:09.993Z,26.76
2018-05-06T07:22:10.292Z,27.09
2018-05-06T07:23:10.065Z,27.28
2018-05-06T07:24:10.370Z,27.54
2018-05-06T07:25:10.394Z,27.84
2018-05-06T07:26:24.836Z,27.66
2018-05-06T07:27:10.206Z,27.69
2018-05-06T07:28:10.518Z,27.67
2018-05-06T07:29:10.540Z,27.65
2018-05-06T07:31:10.352Z,28.34
2018-05-06T07:32:25.312Z,28.61
2018-05-06T07:33:10.693Z,28.85
2018-05-06T07:34:25.389Z,29.3
2018-05-06T07:35:10.760Z,29.14
2018-05-06T07:36:10.533Z,28.71
2018-05-06T07:37:10.826Z,28.81
2018-05-06T07:38:10.865Z,29.19
2018-05-06T07:39:10.900Z,29.3
2018-05-06T07:40:10.941Z,29.31
2018-05-06T07:41:10.716Z,29.18
2018-05-06T07:42:25.413Z,29.55
2018-05-06T07:43:10.785Z,29.43
2018-05-06T07:44:11.086Z,29.61
2018-05-06T07:46:10.636Z,29.46
2018-05-06T07:47:10.941Z,29.23
2018-05-06T07:49:11.585Z,29.16
2018-05-06T07:50:11.302Z,29.08
2018-05-06T07:51:11.080Z,28.83
2018-05-06T07:52:11.369Z,28.34
2018-05-06T07:53:11.409Z,28.59
2018-05-06T07:54:11.446Z,28.8
2018-05-06T07:55:10.962Z,28.61
2018-05-06T07:56:11.260Z,29
2018-05-06T07:57:11.556Z,28.86
2018-05-06T07:58:26.262Z,29.05
2018-05-06T07:59:11.629Z,28.95
2018-05-06T08:00:11.400Z,28.88
2018-05-06T08:02:11.472Z,28.56
2018-05-06T08:04:11.804Z,28.96
2018-05-06T08:05:11.585Z,28.8
2018-05-06T08:06:11.615Z,28.36
2018-05-06T08:07:11.911Z,28.31
2018-05-06T08:08:11.430Z,28.49
2018-05-06T08:09:11.983Z,28.9
2018-05-06T08:10:26.681Z,28.89
2018-05-06T08:11:11.797Z,29.14
2018-05-06T08:12:11.834Z,29.41
2018-05-06T08:13:26.535Z,28.95
2018-05-06T08:14:12.169Z,28.81
2018-05-06T08:16:12.260Z,28.73
2018-05-06T08:17:12.268Z,29.24
2018-05-06T08:18:12.308Z,29.28
2018-05-06T08:19:12.341Z,28.61
2018-05-06T08:20:12.376Z,28.59
2018-05-06T08:21:12.151Z,28.64
2018-05-06T08:22:12.444Z,28.7
2018-05-06T08:23:12.481Z,28.56
2018-05-06T08:24:12.514Z,28.31
2018-05-06T08:25:12.552Z,28.33
2018-05-06T08:26:27.247Z,28.64
2018-05-06T08:27:12.360Z,28.77
2018-05-06T08:28:12.663Z,28.9
2018-05-06T08:29:12.688Z,28.54
2018-05-06T08:30:12.466Z,28.7
2018-05-06T08:32:12.801Z,28.09
2018-05-06T08:33:12.827Z,28.76
2018-05-06T08:34:12.603Z,28.98
2018-05-06T08:35:27.562Z,29.46
2018-05-06T08:36:12.930Z,29.57
2018-05-06T08:37:12.713Z,29.58
2018-05-06T08:38:13.003Z,29.48
2018-05-06T08:39:12.782Z,29.74
2018-05-06T08:40:13.073Z,30.05
2018-05-06T08:41:12.852Z,29.85
2018-05-06T08:43:12.919Z,29.58
2018-05-06T08:44:13.222Z,29.46
2018-05-06T08:45:13.243Z,29.3
2018-05-06T08:46:13.284Z,29.64
2018-05-06T08:47:13.315Z,28.49
2018-05-06T08:48:13.348Z,28.66
2018-05-06T08:49:13.390Z,28.92
2018-05-06T08:50:13.157Z,28.83
2018-05-06T08:51:28.212Z,28
2018-05-06T08:52:13.491Z,28.29
2018-05-06T08:53:13.521Z,27.7
2018-05-06T08:55:13.591Z,26.77
2018-05-06T08:56:13.625Z,27.29
2018-05-06T08:57:13.403Z,27.46
2018-05-06T08:58:13.691Z,27.63
2018-05-06T09:00:13.773Z,27.74
2018-05-06T09:01:13.794Z,28.04
2018-05-06T09:02:13.571Z,28.41
2018-05-06T09:03:13.861Z,28.67
2018-05-06T09:04:13.899Z,28.86
2018-05-06T09:05:13.930Z,29.27
2018-05-06T09:06:13.705Z,29.04
2018-05-06T09:07:28.403Z,28.73
2018-05-06T09:08:13.772Z,28.62
2018-05-06T09:09:13.808Z,28.31
2018-05-06T09:10:14.098Z,28.67
2018-05-06T09:11:14.023Z,28.88
2018-05-06T09:12:14.197Z,28.85
2018-05-06T09:13:14.199Z,28.52
2018-05-06T09:14:14.313Z,28.96
2018-05-06T09:15:14.268Z,28.8
2018-05-06T09:16:14.304Z,28.64
2018-05-06T09:17:14.376Z,28.52
2018-05-06T09:18:14.368Z,28.56
2018-05-06T09:19:14.403Z,28.7
2018-05-06T09:20:14.440Z,28.19
2018-05-06T09:21:13.952Z,27.82
2018-05-06T09:22:14.503Z,27.81
2018-05-06T09:23:29.198Z,27.84
2018-05-06T09:24:14.571Z,28.33
2018-05-06T09:25:29.318Z,28.29
2018-05-06T09:26:14.633Z,28.22
2018-05-06T09:27:14.666Z,28.31
2018-05-06T09:28:14.697Z,27.66
2018-05-06T09:29:14.733Z,26.94
2018-05-06T09:30:14.507Z,27.04
2018-05-06T09:31:14.805Z,27.46
2018-05-06T09:32:29.495Z,27.06
2018-05-06T09:33:14.873Z,27.06
2018-05-06T09:34:14.900Z,27.07
2018-05-06T09:35:14.929Z,26.99
2018-05-06T09:36:14.972Z,26.91
2018-05-06T09:37:14.998Z,27
2018-05-06T09:38:29.700Z,27.02
2018-05-06T09:39:15.070Z,26.84
2018-05-06T09:40:14.838Z,26.99
2018-05-06T09:41:15.137Z,27.31
2018-05-06T09:42:15.161Z,27.21
2018-05-06T09:43:15.193Z,26.45
2018-05-06T09:44:29.888Z,26.57
2018-05-06T09:45:29.919Z,26.01
2018-05-06T09:46:15.031Z,26.17
2018-05-06T09:47:15.059Z,26.05
2018-05-06T09:48:15.355Z,26.09
2018-05-06T09:49:15.385Z,25.51
2018-05-06T09:50:15.422Z,25.28
2018-05-06T09:51:15.189Z,25.23
2018-05-06T09:52:15.480Z,24.52
2018-05-06T09:54:15.544Z,23.97
2018-05-06T09:55:15.582Z,24.16
2018-05-06T09:56:15.346Z,24.32
2018-05-06T09:57:15.379Z,24.77
2018-05-06T09:58:15.667Z,25.06
2018-05-06T09:59:15.441Z,25.57
2018-05-06T10:00:15.474Z,25.91
2018-05-06T10:01:15.760Z,26.06
2018-05-06T10:02:15.275Z,25.58
2018-05-06T10:03:15.819Z,25.2
2018-05-06T10:04:15.855Z,25.27
2018-05-06T10:05:15.888Z,25.69
2018-05-06T10:06:15.658Z,25.75
2018-05-06T10:07:15.697Z,25.76
2018-05-06T10:08:16.184Z,26.2
2018-05-06T10:10:30.700Z,26.48
2018-05-06T10:11:16.071Z,26.87
2018-05-06T10:12:15.843Z,26.6
2018-05-06T10:13:16.231Z,26.63
2018-05-06T10:15:16.199Z,26.7
2018-05-06T10:16:16.284Z,26.47
2018-05-06T10:17:30.914Z,26.51
2018-05-06T10:18:16.028Z,26.73
2018-05-06T10:19:16.321Z,27.02
2018-05-06T10:20:16.086Z,26.43
2018-05-06T10:21:16.116Z,25.87
2018-05-06T10:22:16.609Z,25.73
2018-05-06T10:23:16.180Z,25.69
2018-05-06T10:24:16.464Z,25.28
2018-05-06T10:25:16.505Z,24.91
2018-05-06T10:26:31.188Z,23.9
2018-05-06T10:27:16.558Z,23.68
2018-05-06T10:28:16.428Z,23.6
2018-05-06T10:30:16.651Z,23.88
2018-05-06T10:31:16.679Z,24.16
2018-05-06T10:32:16.709Z,24.43
2018-05-06T10:33:31.400Z,24.16
2018-05-06T10:34:16.596Z,23.84
2018-05-06T10:35:16.799Z,23.88
2018-05-06T10:36:16.833Z,23.98
2018-05-06T10:37:16.861Z,23.79
2018-05-06T10:38:16.627Z,23.51
2018-05-06T10:39:16.913Z,22.97
2018-05-06T10:40:16.717Z,22.92
2018-05-06T10:41:16.974Z,23.22
2018-05-06T10:42:31.418Z,23.32
2018-05-06T10:44:17.319Z,23.68
2018-05-06T10:45:17.092Z,23.8
2018-05-06T10:46:17.125Z,23.79
2018-05-06T10:47:17.344Z,23.57
2018-05-06T10:48:17.207Z,23.54
2018-05-06T10:49:17.655Z,23.78
2018-05-06T10:50:16.998Z,23.91
2018-05-06T10:51:17.265Z,23.91
2018-05-06T10:52:17.297Z,23.36
2018-05-06T10:53:17.323Z,23.31
2018-05-06T10:54:17.356Z,22.98
2018-05-06T10:55:17.382Z,22.64
2018-05-06T10:56:17.411Z,22.47
2018-05-06T10:57:17.435Z,22.24
2018-05-06T10:59:17.492Z,22.27
2018-05-06T11:01:17.551Z,22.57
2018-05-06T11:02:17.574Z,22.57
2018-05-06T11:03:17.601Z,22.51
2018-05-06T11:04:17.636Z,22.7
2018-05-06T11:05:17.403Z,22.92
2018-05-06T11:06:17.692Z,23.17
2018-05-06T11:07:17.713Z,23.46
2018-05-06T11:08:17.746Z,23.65
2018-05-06T11:09:17.774Z,23.69
2018-05-06T11:10:18.297Z,23.69
2018-05-06T11:11:17.833Z,22.82
2018-05-06T11:13:32.543Z,22.76
2018-05-06T11:14:17.915Z,22.72
2018-05-06T11:15:17.937Z,22.62
2018-05-06T11:16:17.967Z,22.35
2018-05-06T11:17:17.736Z,22.24
2018-05-06T11:18:17.766Z,22.07
2018-05-06T11:19:18.049Z,22.15
2018-05-06T11:21:32.763Z,22.22
2018-05-06T11:22:32.789Z,22.24
2018-05-06T11:23:18.156Z,22.37
2018-05-06T11:24:18.185Z,22.7
2018-05-06T11:25:18.212Z,22.8
2018-05-06T11:26:18.407Z,22.9
2018-05-06T11:27:18.266Z,22.79
2018-05-06T11:29:18.322Z,22.94
2018-05-06T11:30:18.346Z,22.97
2018-05-06T11:31:18.383Z,23.12
2018-05-06T11:32:18.401Z,23.05
2018-05-06T11:33:18.530Z,23.15
2018-05-06T11:34:18.453Z,23.25
2018-05-06T11:35:18.479Z,23.4
2018-05-06T11:36:18.514Z,23.51
2018-05-06T11:37:18.534Z,23.31
2018-05-06T11:38:18.308Z,23.12
2018-05-06T11:39:18.590Z,22.94
2018-05-06T11:41:33.044Z,22.61
2018-05-06T11:42:18.410Z,22.52
2018-05-06T11:43:18.703Z,22.6
2018-05-06T11:44:18.727Z,22.68
2018-05-06T11:45:33.409Z,22.75
2018-05-06T11:46:18.523Z,22.9
2018-05-06T11:47:18.547Z,22.98
2018-05-06T11:48:18.572Z,22.98
2018-05-06T11:49:18.881Z,22.86
2018-05-06T11:50:18.886Z,23
2018-05-06T11:51:18.912Z,22.98
2018-05-06T11:52:18.937Z,23.01
2018-05-06T11:53:18.446Z,23.17
2018-05-06T11:54:18.732Z,23.35
2018-05-06T11:55:18.758Z,23.31
2018-05-06T11:56:19.369Z,23.35
2018-05-06T11:57:18.813Z,23.38
2018-05-06T11:58:18.840Z,23.32
2018-05-06T11:59:18.607Z,23.31
2018-05-06T12:00:33.821Z,23.31
2018-05-06T12:01:33.579Z,23.28
2018-05-06T12:02:19.108Z,23.25
2018-05-06T12:03:19.236Z,23.15
2018-05-06T12:04:19.257Z,23.15
2018-05-06T12:05:19.287Z,22.95
2018-05-06T12:06:19.057Z,23
2018-05-06T12:07:19.079Z,22.98
2018-05-06T12:08:19.416Z,22.79
2018-05-06T12:09:19.135Z,22.68
2018-05-06T12:10:34.077Z,22.97
2018-05-06T12:11:19.449Z,23.1
2018-05-06T12:12:19.487Z,23.1
2018-05-06T12:13:19.500Z,23.2
2018-05-06T12:15:19.553Z,22.92
2018-05-06T12:16:19.579Z,22.75
2018-05-06T12:17:34.017Z,22.35
2018-05-06T12:18:19.629Z,22.25
2018-05-06T12:19:19.399Z,22.46
2018-05-06T12:20:19.430Z,22.51
2018-05-06T12:21:19.710Z,22.73
2018-05-06T12:22:19.742Z,22.75
2018-05-06T12:23:19.763Z,22.86
2018-05-06T12:24:19.536Z,22.97
2018-05-06T12:25:19.815Z,22.79
2018-05-06T12:26:19.586Z,22.46
2018-05-06T12:27:19.870Z,22.35
2018-05-06T12:29:19.933Z,22.37
2018-05-06T12:31:19.716Z,22.36
2018-05-06T12:33:34.433Z,22.67
2018-05-06T12:34:20.060Z,22.7
2018-05-06T12:35:19.927Z,22.68
2018-05-06T12:36:20.107Z,22.64
2018-05-06T12:37:20.137Z,22.9
2018-05-06T12:38:19.902Z,22.98
2018-05-06T12:39:19.924Z,22.91
2018-05-06T12:40:19.957Z,22.77
2018-05-06T12:41:34.900Z,22.94
2018-05-06T12:42:19.748Z,22.85
2018-05-06T12:43:20.232Z,22.75
2018-05-06T12:44:19.800Z,22.76
2018-05-06T12:45:19.826Z,22.77
2018-05-06T12:46:20.370Z,22.76
2018-05-06T12:47:20.139Z,22.91
2018-05-06T12:48:34.827Z,22.95
2018-05-06T12:49:20.195Z,22.95
2018-05-06T12:50:20.216Z,22.72
2018-05-06T12:51:19.985Z,22.47
2018-05-06T12:52:20.532Z,22.73
2018-05-06T12:53:20.555Z,22.76
2018-05-06T12:54:20.582Z,22.67
2018-05-06T12:55:20.808Z,22.46
2018-05-06T12:56:20.386Z,22.49
2018-05-06T12:57:20.760Z,22.57
2018-05-06T12:58:20.690Z,22.49
2018-05-06T12:59:20.715Z,22.47
2018-05-06T13:00:20.738Z,22.76
2018-05-06T13:01:20.769Z,22.86
2018-05-06T13:02:20.948Z,23.01
2018-05-06T13:04:20.842Z,22.6
2018-05-06T13:05:20.875Z,22.57
2018-05-06T13:07:20.926Z,22.45
2018-05-06T13:08:20.949Z,22.28
2018-05-06T13:09:20.975Z,22.28
2018-05-06T13:10:21.001Z,22.12
2018-05-06T13:11:21.123Z,22.09
2018-05-06T13:12:35.715Z,22.35
2018-05-06T13:13:20.821Z,22.52
2018-05-06T13:14:21.116Z,22.73
2018-05-06T13:15:21.206Z,22.79
2018-05-06T13:16:21.157Z,22.76
2018-05-06T13:17:20.927Z,22.72
2018-05-06T13:18:21.213Z,22.68
2018-05-06T13:19:20.983Z,22.39
2018-05-06T13:20:35.922Z,22.24
2018-05-06T13:21:21.289Z,22.09
2018-05-06T13:22:35.982Z,22.03
2018-05-06T13:24:21.109Z,22.24
2018-05-06T13:25:21.136Z,22.46
2018-05-06T13:26:21.427Z,22.54
2018-05-06T13:27:21.456Z,22.55
2018-05-06T13:28:21.215Z,22.4
2018-05-06T13:29:21.504Z,22.57
2018-05-06T13:30:36.183Z,22.54
2018-05-06T13:31:21.290Z,22.68
2018-05-06T13:32:21.319Z,22.8
2018-05-06T13:33:21.609Z,22.83
2018-05-06T13:34:21.629Z,22.68
2018-05-06T13:35:21.394Z,22.72
2018-05-06T13:36:36.345Z,22.49
2018-05-06T13:38:21.732Z,22.25
2018-05-06T13:39:21.763Z,22.25
2018-05-06T13:40:21.528Z,21.98
2018-05-06T13:41:21.811Z,22.14
2018-05-06T13:42:21.837Z,22.18
2018-05-06T13:43:21.863Z,21.99
2018-05-06T13:44:21.895Z,22.14
2018-05-06T13:45:22.018Z,22.06
2018-05-06T13:46:21.943Z,22.25
2018-05-06T13:47:21.713Z,22.37
2018-05-06T13:48:21.998Z,22.37
2018-05-06T13:49:22.025Z,22.51
2018-05-06T13:50:21.792Z,22.57
2018-05-06T13:51:22.075Z,22.64
2018-05-06T13:52:36.501Z,22.76
2018-05-06T13:53:21.859Z,22.77
2018-05-06T13:54:22.154Z,22.75
2018-05-06T13:55:21.916Z,22.62
2018-05-06T13:56:22.222Z,22.83
2018-05-06T13:57:22.228Z,22.91
2018-05-06T13:58:21.993Z,22.73